Home > Products > Valid Products > MTR

000
SAUS41 KOKX 230256
MTRMTP
METAR KMTP 230254Z AUTO 23010G20KT 08/01 A3019 RMK AO1 SLP222
T00830006 58009





000
SAUS41 KOKX 230252
MTRNYC
METAR KNYC 230251Z AUTO VRB04KT 10SM CLR 06/M07 A3023 RMK AO2 SLP229
T00611072 56007 $





000
SAUS41 KOKX 230155
MTRMTP
METAR KMTP 230154Z AUTO 24009G17KT 08/00 A3021 RMK AO1 SLP229
T00780000





000
SAUS41 KOKX 230152
MTRNYC
METAR KNYC 230151Z AUTO 10SM SCT110 06/M08 A3024 RMK AO2 SLP231
T00611078 $





000
SAUS41 KOKX 230055
MTRMTP
METAR KMTP 230054Z AUTO 24010G19KT 08/01 A3022 RMK AO1 SLP233
T00830006





000
SAUS41 KOKX 230053
MTRNYC
METAR KNYC 230051Z AUTO 26007G15KT 210V310 10SM SCT065 BKN110 07/M08
A3024 RMK AO2 SLP233 T00671078 $





000
SAUS41 KOKX 222355
MTRMTP
METAR KMTP 222354Z AUTO 23012G22KT 08/00 A3022 RMK AO1 SLP231
T00780000 10078 20050 58017





000
SAUS41 KOKX 222352
MTRNYC
METAR KNYC 222351Z AUTO 24006KT 10SM SCT044 BKN075 BKN100 06/M08
A3025 RMK AO2 SLP237 T00611083 10067 20044 58015 $





000
SAUS41 KOKX 222255
MTRMTP
METAR KMTP 222254Z AUTO 23007G18KT 07/00 A3024 RMK AO1 SLP240
T00720000





000
SAUS41 KOKX 222252
MTRNYC
METAR KNYC 222251Z AUTO VRB04KT 10SM BKN060 OVC080 06/M08 A3028 RMK
AO2 SLP246 T00611083 $





000
SAUS41 KOKX 222155
MTRMTP
METAR KMTP 222154Z AUTO 23010G18KT 06/M01 A3026 RMK AO1 SLP245
T00611006





000
SAUS41 KOKX 222155
MTRMTP
METAR KMTP 222154Z AUTO 23010G18KT 06/M01 A3026 RMK AO1 SLP245
T00611006





000
SAUS41 KOKX 222152
MTRNYC
METAR KNYC 222151Z AUTO VRB05KT 10SM BKN048 OVC060 06/M08 A3027 RMK
AO2 SLP243 T00561083 $





000
SAUS41 KOKX 222152
MTRNYC
METAR KNYC 222151Z AUTO VRB05KT 10SM BKN048 OVC060 06/M08 A3027 RMK
AO2 SLP243 T00561083 $





000
SAUS41 KOKX 222100
MTRNYC

METAR KNYC 222051Z AUTO VRB03KT 10SM OVC065 06/M09 A3029 RMK AO2
     SLP252 T00561094 $








000
SAUS41 KOKX 222055
MTRMTP
METAR KMTP 222054Z AUTO 23012G21KT 06/M02 A3027 RMK AO1 SLP249
T00561017 56024





000
SAUS41 KOKX 221955
MTRMTP
METAR KMTP 221954Z AUTO 23012G21KT 06/M02 A3028 RMK AO1 PK WND
23026/1921 SLP254 T00561022





000
SAUS41 KOKX 221952
MTRNYC
METAR KNYC 221951Z AUTO 25008KT 200V260 10SM BKN085 06/M10 A3031 RMK
AO2 SLP255 T00611100 $





000
SAUS41 KOKX 221855
MTRMTP
METAR KMTP 221854Z AUTO 23013G21KT 06/M03 A3030 RMK AO1 SLP262
T00561033





000
SAUS41 KOKX 221853
MTRNYC
METAR KNYC 221851Z AUTO VRB05KT 10SM CLR 05/M11 A3032 RMK AO2 SLP260
T00501111 $





000
SAUS41 KOKX 221755
MTRMTP
METAR KMTP 221754Z AUTO 23012G25KT 05/M06 A3034 RMK AO1 SLP272
T00501056 10061 20000 56038





000
SAUS41 KOKX 221752
MTRNYC
METAR KNYC 221751Z AUTO VRB05G16KT 10SM CLR 04/M12 A3035 RMK AO2
SLP270 T00441122 10044 21022 58041 $





000
SAUS41 KOKX 221655
MTRMTP
METAR KMTP 221654Z AUTO 23009KT 06/M08 A3036 RMK AO1 SLP279
T00561083





000
SAUS41 KOKX 221653
MTRNYC
METAR KNYC 221651Z AUTO 26007KT 220V310 10SM CLR 03/M12 A3040 RMK
AO2 SLP286 T00331117 $





000
SAUS41 KOKX 221555
MTRMTP
METAR KMTP 221554Z AUTO 22011G17KT 05/M06 A3040 RMK AO1 SLP293
T00501056





000
SAUS41 KOKX 221553
MTRNYC
METAR KNYC 221551Z AUTO 23004KT 10SM CLR 02/M12 A3044 RMK AO2 SLP301
T00171122 $





000
SAUS41 KOKX 221553
MTRNYC
METAR KNYC 221551Z AUTO 23004KT 10SM CLR 02/M12 A3044 RMK AO2 SLP301
T00171122 $





000
SAUS41 KOKX 221455
MTRMTP
METAR KMTP 221454Z AUTO 24009G16KT 03/M08 A3045 RMK AO1 SLP310
T00331078 58008





000
SAUS41 KOKX 221452
MTRNYC
METAR KNYC 221451Z AUTO 00000KT 10SM CLR 01/M12 A3047 RMK AO2 SLP310
T00061122 58012 $





000
SAUS41 KOKX 221355
MTRMTP
METAR KMTP 221354Z AUTO 23009G17KT 03/M08 A3047 RMK AO1 SLP316
T00281083





000
SAUS41 KOKX 221352
MTRNYC
METAR KNYC 221351Z AUTO 10SM CLR M01/M12 A3049 RMK AO2 SLP319
T10061122 $





000
SAUS41 KOKX 221255
MTRMTP
METAR KMTP 221254Z AUTO 24010G17KT 02/M07 A3048 RMK AO1 SLP322
T00171072





000
SAUS41 KOKX 221253 COR
MTRNYC
METAR KNYC 221251Z AUTO VRB05KT 10SM CLR M02/M12 A3050 RMK AO2
SLP321 T10221117 $





000
SAUS41 KOKX 221155
MTRMTP
METAR KMTP 221154Z AUTO 22005KT 00/M07 A3047 RMK AO1 SLP318
T00001067 10011 20000 50003





000
SAUS41 KOKX 221153
MTRNYC
METAR KNYC 221151Z AUTO 00000KT 10SM CLR M02/M12 A3050 RMK AO2
SLP322 T10221117 10000 21022 50003 $





000
SAUS41 KOKX 221055
MTRMTP
METAR KMTP 221054Z AUTO 23007KT 01/M06 A3047 RMK AO1 SLP319
T00061061





000
SAUS41 KOKX 221053 COR
MTRNYC
METAR KNYC 221051Z AUTO 26008KT 10SM CLR M02/M12 A3051 RMK AO2
SLP323 T10171117 $





000
SAUS41 KOKX 220955
MTRMTP
METAR KMTP 220954Z AUTO 25008KT 01/M08 A3046 RMK AO1 SLP315
T00111078





000
SAUS41 KOKX 220955
MTRMTP
METAR KMTP 220954Z AUTO 25008KT 01/M08 A3046 RMK AO1 SLP315
T00111078





000
SAUS41 KOKX 220952
MTRNYC
METAR KNYC 220951Z AUTO 00000KT 10SM CLR M02/M12 A3049 RMK AO2
SLP319 T10171122 $





000
SAUS41 KOKX 220855
MTRMTP
METAR KMTP 220854Z AUTO 28007KT 01/M09 A3046 RMK AO1 SLP315
T00111089 58004





000
SAUS41 KOKX 220852
MTRNYC
METAR KNYC 220851Z AUTO VRB03KT 10SM CLR M02/M12 A3049 RMK AO2
SLP319 T10171122 58008 $





000
SAUS41 KOKX 220755
MTRMTP
METAR KMTP 220754Z AUTO 26006G15KT 01/M11 A3048 RMK AO1 SLP320
T00061106





000
SAUS41 KOKX 220752
MTRNYC
METAR KNYC 220751Z AUTO 26003KT 10SM CLR M01/M12 A3051 RMK AO2
SLP324 T10061122 $





000
SAUS41 KOKX 220655
MTRMTP
METAR KMTP 220654Z AUTO 27010G15KT 01/M11 A3048 RMK AO1 SLP322
T00061111





000
SAUS41 KOKX 220652
MTRNYC
METAR KNYC 220651Z AUTO 00000KT 10SM CLR M01/M13 A3051 RMK AO2
SLP324 T10061128 $





000
SAUS41 KOKX 220555
MTRMTP
METAR KMTP 220554Z AUTO 30010KT 01/M11 A3048 RMK AO1 SLP319
T00061111 10011 20000 55000





000
SAUS41 KOKX 220553
MTRNYC
METAR KNYC 220551Z AUTO 25004KT 10SM CLR M01/M13 A3052 RMK AO2
SLP327 T10061133 10006 21011 50001 $





000
SAUS41 KOKX 220455
MTRMTP
METAR KMTP 220454Z AUTO 28007KT 00/M10 A3048 RMK AO1 SLP319
T00001100 400280000





000
SAUS41 KOKX 220452
MTRNYC
METAR KNYC 220451Z AUTO 00000KT 10SM CLR M01/M13 A3052 RMK AO2
SLP329 T10061133 400281022 $





000
SAUS41 KOKX 220355
MTRMTP
METAR KMTP 220354Z AUTO 31011G21KT 00/M11 A3047 RMK AO1 SLP319
T00001106





000
SAUS41 KOKX 220352
MTRNYC
METAR KNYC 220351Z AUTO 00000KT 10SM CLR M01/M13 A3052 RMK AO2
SLP328 T10061128 $





000
SAUS41 KOKX 220255
MTRMTP
METAR KMTP 220254Z AUTO 31014G24KT 00/M12 A3048 RMK AO1 SLP319
T00001117 51019





000
SAUS41 KOKX 220252
MTRNYC
METAR KNYC 220251Z AUTO 05003KT 10SM CLR M01/M13 A3051 RMK AO2
SLP326 T10061128 51009 $





000
SAUS41 KOKX 220155
MTRMTP
METAR KMTP 220154Z AUTO 30013G21KT 00/M12 A3046 RMK AO1 PK WND
29029/0123 SLP312 T00001117





000
SAUS41 KOKX 220152
MTRNYC
METAR KNYC 220151Z AUTO VRB05KT 10SM CLR M01/M13 A3050 RMK AO2
SLP322 T10061128 $





000
SAUS41 KOKX 220055
MTRMTP
METAR KMTP 220054Z AUTO 30015G24KT 01/M13 A3045 RMK AO1 PK WND
29033/0033 SLP310 T00061128





000
SAUS41 KOKX 220052
MTRNYC
METAR KNYC 220051Z AUTO 35007KT 10SM CLR 00/M13 A3050 RMK AO2 SLP321
T00001128 $





000
SAUS41 KOKX 212355
MTRMTP
METAR KMTP 212354Z AUTO 30017G24KT 01/M12 A3042 RMK AO1 PK WND
31026/2338 SLP301 T00111122 10028 20011 52041





000
SAUS41 KOKX 212352
MTRNYC
METAR KNYC 212351Z AUTO 10SM CLR 01/M13 A3049 RMK AO2 SLP317
T00061128 10028 20006 51035 $





000
SAUS41 KOKX 212255
MTRMTP
METAR KMTP 212254Z AUTO 31012G25KT 02/M11 A3038 RMK AO1 PK WND
29026/2227 SLP286 T00171106





000
SAUS41 KOKX 212252
MTRNYC
METAR KNYC 212251Z AUTO VRB06G15KT 10SM CLR 01/M13 A3046 RMK AO2
SLP307 T00111133 $





000
SAUS41 KOKX 212155
MTRMTP
METAR KMTP 212154Z AUTO 30014G24KT 02/M11 A3034 RMK AO1 SLP274
T00171106





000
SAUS41 KOKX 212153
MTRNYC
METAR KNYC 212151Z AUTO 31007KT 260V050 10SM CLR 01/M14 A3042 RMK
AO2 SLP295 T00111139 $





000
SAUS41 KOKX 212153
MTRNYC
METAR KNYC 212151Z AUTO 31007KT 260V050 10SM CLR 01/M14 A3042 RMK
AO2 SLP295 T00111139 $





000
SAUS41 KOKX 212055
MTRMTP
METAR KMTP 212054Z AUTO 30012KT 02/M11 A3030 RMK AO1 SLP260
T00221106 53032





000
SAUS41 KOKX 212053
MTRNYC
METAR KNYC 212051Z AUTO 31008KT 270V340 10SM CLR 02/M14 A3038 RMK
AO2 SLP282 T00171139 53025 $





000
SAUS41 KOKX 211958 RRB
MTRNYC

METAR KNYC 211951Z AUTO 31010G19KT 10SM CLR 02/M14 A3035 RMK AO2
     SLP270 T00221139 $ RTX








000
SAUS41 KOKX 211900 RRD
MTRNYC

METAR KNYC 211851Z AUTO 30010G20KT 10SM FEW060 02/M13 A3033 RMK AO2
SLP263 T00221133 $ RTX










000
SAUS41 KOKX 211808
MTRNYC

METAR KNYC 211751Z AUTO 30009G18KT 260V330 10SM FEW060 02/M13 A3031
RMK AO2 SLP252 T00171133 10022 21022 52007 $ RTX FIBI








000
SAUS41 KOKX 211656
MTRMTP
METAR KMTP 211654Z AUTO 30013G21KT 02/M11 A3019 RMK AO1 SLP223
T00171111





000
SAUS41 KOKX 211655
MTRNYC
METAR KNYC 211651Z AUTO 30007G18KT 260V350 10SM CLR 02/M13 A3030 RMK
AO2 SLP252 T00171133 $





000
SAUS41 KOKX 211556
MTRMTP
METAR KMTP 211554Z AUTO 30013G22KT 01/M11 A3020 RMK AO1 SLP225
T00111111





000
SAUS41 KOKX 211556
MTRMTP
METAR KMTP 211554Z AUTO 30013G22KT 01/M11 A3020 RMK AO1 SLP225
T00111111





000
SAUS41 KOKX 211555
MTRNYC
METAR KNYC 211551Z AUTO VRB06G20KT 10SM CLR 00/M13 A3030 RMK AO2
SLP253 T00001133 $





000
SAUS41 KOKX 211555
MTRNYC
METAR KNYC 211551Z AUTO VRB06G20KT 10SM CLR 00/M13 A3030 RMK AO2
SLP253 T00001133 $





000
SAUS41 KOKX 211456
MTRMTP
METAR KMTP 211454Z AUTO 29011G23KT 01/M11 A3019 RMK AO1 PK WND
30027/1441 SLP222 T00061111 51023





000
SAUS41 KOKX 211452
MTRNYC
METAR KNYC 211451Z AUTO 30009G17KT 250V330 10SM CLR M01/M13 A3029
RMK AO2 SLP249 T10111133 51027 $





000
SAUS41 KOKX 211355
MTRMTP
METAR KMTP 211354Z AUTO 30014G26KT 00/M12 A3018 RMK AO1 PK WND
31026/1351 SLP220 T00001117





000
SAUS41 KOKX 211352
MTRNYC
METAR KNYC 211351Z AUTO VRB05G17KT 10SM CLR M02/M13 A3028 RMK AO2
SLP245 T10171128 $





000
SAUS41 KOKX 211255
MTRMTP
METAR KMTP 211254Z AUTO 28011G22KT 00/M12 A3015 RMK AO1 SLP208
T00001117





000
SAUS41 KOKX 211252
MTRNYC
METAR KNYC 211251Z AUTO 29009G20KT 10SM CLR M02/M13 A3024 RMK AO2
SLP234 T10221128 $





000
SAUS41 KOKX 211155
MTRMTP
METAR KMTP 211154Z AUTO 29009G26KT 00/M11 A3012 RMK AO1 PK WND
30026/1145 SLP199 T00001106 10022 20000 53033





000
SAUS41 KOKX 211152
MTRNYC
METAR KNYC 211151Z AUTO VRB06G15KT 10SM CLR M02/M13 A3021 RMK AO2
SLP222 T10221128 11006 21022 53031 $





000
SAUS41 KOKX 211055
MTRMTP
METAR KMTP 211054Z AUTO 29011G18KT 00/M11 A3009 RMK AO1 SLP188
T00001111





000
SAUS41 KOKX 211052
MTRNYC
METAR KNYC 211051Z AUTO 28005KT 10SM CLR M02/M13 A3018 RMK AO2
SLP211 T10221128 $





000
SAUS41 KOKX 210955
MTRMTP
METAR KMTP 210954Z AUTO 29012G21KT 00/M11 A3005 RMK AO1 SLP176
T00001106





000
SAUS41 KOKX 210953
MTRNYC
METAR KNYC 210951Z AUTO 28009G18KT 250V310 10SM CLR M02/M13 A3014
RMK AO2 SLP198 T10171133 $





000
SAUS41 KOKX 210855
MTRMTP
METAR KMTP 210854Z AUTO 29011G20KT 01/M11 A3002 RMK AO1 SLP167
T00061106 53018





000
SAUS41 KOKX 210853
MTRNYC
METAR KNYC 210851Z AUTO VRB05G14KT 10SM CLR M02/M13 A3011 RMK AO2
SLP189 T10171133 53019 $





000
SAUS41 KOKX 210755
MTRMTP
METAR KMTP 210754Z AUTO 29010G20KT 01/M09 A3000 RMK AO1 SLP158
T00111094





000
SAUS41 KOKX 210753
MTRNYC
METAR KNYC 210751Z AUTO 10SM CLR M01/M13 A3010 RMK AO2 SLP183
T10111133 $





000
SAUS41 KOKX 210655
MTRMTP
METAR KMTP 210654Z AUTO 29012G20KT 02/M10 A2998 RMK AO1 SLP151
T00221100





000
SAUS41 KOKX 210653
MTRNYC
METAR KNYC 210651Z AUTO 29011G17KT 10SM CLR M01/M14 A3007 RMK AO2
SLP175 T10111144 $





000
SAUS41 KOKX 210555
MTRMTP
METAR KMTP 210554Z AUTO 29012G20KT 02/M11 A2997 RMK AO1 SLP149
T00221106 10072 20022 51015





000
SAUS41 KOKX 210553
MTRNYC
METAR KNYC 210551Z AUTO 30010G20KT 10SM CLR M01/M14 A3006 RMK AO2
SLP170 T10061144 10050 21006 51017 $





000
SAUS41 KOKX 210455
MTRMTP
METAR KMTP 210454Z AUTO 30011G21KT 03/M09 A2996 RMK AO1 SLP146
T00331094 401000028





000
SAUS41 KOKX 210452
MTRNYC
METAR KNYC 210451Z AUTO 28009G15KT 10SM FEW120 M01/M13 A3005 RMK AO2
SLP169 T10061133 400721006 $





000
SAUS41 KOKX 210355
MTRMTP
METAR KMTP 210354Z AUTO 29009G19KT 04/M08 A2994 RMK AO1 SLP139
T00391083





000
SAUS41 KOKX 210352
MTRNYC
METAR KNYC 210351Z AUTO VRB05KT 10SM CLR 01/M13 A3002 RMK AO2 SLP159
T00061133 $





000
SAUS41 KOKX 210352
MTRNYC
METAR KNYC 210351Z AUTO VRB05KT 10SM CLR 01/M13 A3002 RMK AO2 SLP159
T00061133 $





000
SAUS41 KOKX 210255
MTRMTP
METAR KMTP 210254Z AUTO 30013G21KT 05/M08 A2993 RMK AO1 SLP134
T00501078 53012





000
SAUS41 KOKX 210253
MTRNYC
METAR KNYC 210251Z AUTO 29007G17KT 260V320 10SM CLR 01/M13 A3001 RMK
AO2 SLP153 T00111128 53020 $





000
SAUS41 KOKX 210155
MTRMTP
METAR KMTP 210154Z AUTO 28015G22KT 07/M07 A2991 RMK AO1 PK WND
25026/0059 SLP128 T00671067





000
SAUS41 KOKX 210153
MTRNYC
METAR KNYC 210151Z AUTO VRB05G17KT 10SM CLR 03/M13 A2998 RMK AO2
SLP145 T00281128 $





000
SAUS41 KOKX 210055
MTRMTP
METAR KMTP 210054Z AUTO 27014G22KT 07/M03 A2991 RMK AO1 SLP126
T00721033





000
SAUS41 KOKX 210052
MTRNYC
METAR KNYC 210051Z AUTO 27008G20KT 220V290 10SM CLR 04/M13 A2996 RMK
AO2 SLP137 T00391128 $





000
SAUS41 KOKX 202355
MTRMTP
METAR KMTP 202354Z AUTO 25013G23KT 07/M04 A2989 RMK AO1 SLP122
T00721039 10100 20067 51022





000
SAUS41 KOKX 202352
MTRNYC
METAR KNYC 202351Z AUTO 29009G19KT 240V320 10SM CLR 05/M11 A2995 RMK
AO2 SLP133 T00501111 10072 20050 53026 $





000
SAUS41 KOKX 202255
MTRMTP
METAR KMTP 202254Z AUTO 25010G19KT 07/M03 A2988 RMK AO1 SLP117
T00721033





000
SAUS41 KOKX 202252
MTRNYC
METAR KNYC 202251Z AUTO 29008G19KT 10SM CLR 06/M09 A2992 RMK AO2
SLP124 T00561094 $





000
SAUS41 KOKX 202155
MTRMTP
METAR KMTP 202154Z AUTO 24009G18KT 08/M03 A2986 RMK AO1 SLP109
T00781033





000
SAUS41 KOKX 202153
MTRNYC
METAR KNYC 202151Z AUTO VRB03G18KT 10SM CLR 07/M08 A2989 RMK AO2
SLP112 T00671083 $





000
SAUS41 KOKX 202055
MTRMTP
METAR KMTP 202054Z AUTO 24013G20KT 08/M02 A2983 RMK AO1 SLP100
T00831022 55007





000
SAUS41 KOKX 202053
MTRNYC
METAR KNYC 202051Z AUTO VRB04KT 10SM FEW060 07/M07 A2987 RMK AO2
SLP107 T00721067 55004 $





000
SAUS41 KOKX 201955
MTRMTP
METAR KMTP 201954Z AUTO 25010G17KT 08/M01 A2983 RMK AO1 SLP099
T00831011





000
SAUS41 KOKX 201952
MTRNYC
METAR KNYC 201951Z AUTO 28010G23KT 220V310 10SM FEW055 07/M06 A2986
RMK AO2 SLP105 T00721061 $





000
SAUS41 KOKX 201855
MTRMTP
METAR KMTP 201854Z AUTO 26012G17KT 09/M01 A2983 RMK AO1 SLP102
T00891011





000
SAUS41 KOKX 201852
MTRNYC
METAR KNYC 201851Z AUTO 27008G17KT 230V310 10SM CLR 07/M06 A2987 RMK
AO2 SLP107 T00671061 $





000
SAUS41 KOKX 201755
MTRMTP
METAR KMTP 201754Z AUTO 26013G19KT 10/M03 A2985 RMK AO1 SLP107
T01001028 10100 20050 58029





000
SAUS41 KOKX 201752
MTRNYC
METAR KNYC 201751Z AUTO VRB05KT 10SM CLR 06/M07 A2988 RMK AO2 SLP111
T00611067 10061 20022 58024 $





000
SAUS41 KOKX 201655
MTRMTP
METAR KMTP 201654Z AUTO 23009KT 09/M04 A2988 RMK AO1 SLP118
T00941039





000
SAUS41 KOKX 201652
MTRNYC
METAR KNYC 201651Z AUTO VRB05KT 10SM BKN065 05/M08 A2992 RMK AO2
SLP124 T00501078 $





000
SAUS41 KOKX 201555
MTRMTP
METAR KMTP 201554Z AUTO 26008G18KT 09/M04 A2991 RMK AO1 SLP129
T00891044





000
SAUS41 KOKX 201552
MTRNYC
METAR KNYC 201551Z AUTO VRB03KT 10SM FEW075 05/M07 A2995 RMK AO2
SLP135 T00501072 $





000
SAUS41 KOKX 201455
MTRMTP
METAR KMTP 201454Z AUTO 23009KT 07/M04 A2994 RMK AO1 SLP136
T00721044 58010





000
SAUS41 KOKX 201452
MTRNYC
METAR KNYC 201451Z AUTO 27007KT 10SM OVC070 04/M07 A2996 RMK AO2
SLP136 T00391072 58005 $





000
SAUS41 KOKX 201355
MTRMTP
METAR KMTP 201354Z AUTO 24008KT 06/M04 A2995 RMK AO1 SLP141
T00611044





000
SAUS41 KOKX 201352
MTRNYC
METAR KNYC 201351Z AUTO VRB04G17KT 10SM OVC070 03/M08 A2996 RMK AO2
SLP138 T00331083 $





000
SAUS41 KOKX 201255
MTRMTP
METAR KMTP 201254Z AUTO 23010G16KT 06/M03 A2996 RMK AO1 SLP145
T00561033





000
SAUS41 KOKX 201252
MTRNYC
METAR KNYC 201251Z AUTO 24007KT 200V270 10SM OVC070 03/M08 A2997 RMK
AO2 SLP141 T00331083 $





000
SAUS41 KOKX 201155
MTRMTP
METAR KMTP 201154Z AUTO 25009KT 06/M02 A2996 RMK AO1 SLP146
T00561022 10067 20033 56012





000
SAUS41 KOKX 201153
MTRNYC
METAR KNYC 201151Z AUTO VRB05KT 10SM OVC075 02/M08 A2997 RMK AO2
SLP142 T00221083 10028 20017 58009 $





000
SAUS41 KOKX 201055
MTRMTP
METAR KMTP 201054Z AUTO 25007KT 06/M02 A2997 RMK AO1 SLP147
T00561017





000
SAUS41 KOKX 201053
MTRNYC
METAR KNYC 201051Z AUTO VRB04KT 10SM OVC080 02/M09 A2998 RMK AO2
SLP146 T00221089 $





000
SAUS41 KOKX 200955
MTRMTP
METAR KMTP 200954Z AUTO 25007KT 06/M02 A2998 RMK AO1 SLP151
T00611017





000
SAUS41 KOKX 200955
MTRMTP
METAR KMTP 200954Z AUTO 25007KT 06/M02 A2998 RMK AO1 SLP151
T00611017





000
SAUS41 KOKX 200952
MTRNYC
METAR KNYC 200951Z AUTO 26007KT 10SM BKN080 02/M09 A2999 RMK AO2
SLP150 T00221089 $





000
SAUS41 KOKX 200952
MTRNYC
METAR KNYC 200951Z AUTO 26007KT 10SM BKN080 02/M09 A2999 RMK AO2
SLP150 T00221089 $





000
SAUS41 KOKX 200855
MTRMTP
METAR KMTP 200854Z AUTO 23008KT 06/M03 A3000 RMK AO1 SLP158
T00561028 58028





000
SAUS41 KOKX 200853
MTRNYC
METAR KNYC 200851Z AUTO 10SM CLR 02/M09 A3000 RMK AO2 SLP151
T00171089 56015 $





000
SAUS41 KOKX 200755
MTRMTP
METAR KMTP 200754Z AUTO 23005KT 04/M03 A3003 RMK AO1 SLP168
T00441033





000
SAUS41 KOKX 200752
MTRNYC
METAR KNYC 200751Z AUTO VRB06KT 10SM CLR 02/M09 A3001 RMK AO2 SLP156
T00221089 $





000
SAUS41 KOKX 200655
MTRMTP
METAR KMTP 200654Z AUTO 25007KT 03/M04 A3006 RMK AO1 SLP178
T00331039





000
SAUS41 KOKX 200653
MTRNYC
METAR KNYC 200651Z AUTO 24008G20KT 170V280 10SM OVC100 03/M09 A3003
RMK AO2 SLP161 T00281089 $





000
SAUS41 KOKX 200555
MTRMTP
METAR KMTP 200554Z AUTO 25005KT 03/M04 A3008 RMK AO1 SLP186
T00331039 10044 20011 58012





000
SAUS41 KOKX 200552
MTRNYC
METAR KNYC 200551Z AUTO 23007KT 190V250 10SM OVC090 02/M09 A3004 RMK
AO2 SLP167 T00221089 10028 21011 57035 $





000
SAUS41 KOKX 200455
MTRMTP
METAR KMTP 200454Z AUTO 27012G23KT 03/M03 A3011 RMK AO1 SLP194
T00281033 400441017





000
SAUS41 KOKX 200452
MTRNYC
METAR KNYC 200451Z AUTO 00000KT 10SM SCT080 BKN110 02/M09 A3008 RMK
AO2 SLP179 T00171094 400221056 $





000
SAUS41 KOKX 200355
MTRMTP
METAR KMTP 200354Z AUTO 27010G17KT 03/M03 A3012 RMK AO1 SLP199
T00281033





000
SAUS41 KOKX 200355
MTRMTP
METAR KMTP 200354Z AUTO 27010G17KT 03/M03 A3012 RMK AO1 SLP199
T00281033





000
SAUS41 KOKX 200352
MTRNYC
METAR KNYC 200351Z AUTO 10SM OVC080 01/M10 A3011 RMK AO2 SLP189
T00111100 $





000
SAUS41 KOKX 200352
MTRNYC
METAR KNYC 200351Z AUTO 10SM OVC080 01/M10 A3011 RMK AO2 SLP189
T00111100 $





    US Dept of Commerce
    National Oceanic and Atmospheric Administration
    National Weather Service
    1325 East West Highway
    Silver Spring, MD 20910
    Page Author: NWS Internet Services Team
Disclaimer
Information Quality
Credits
Glossary
Privacy Policy
Freedom of Information Act (FOIA)
About Us
Career Opportunities